Time;durP1;ratioP1;P1;durP2;ratioP2;P2;SDS_P1;SDS_P2;PMS_P1;PMS_P2;Temp;Humidity;BMP_temperature;BMP_pressure;BME280_temperature;BME280_humidity;BME280_pressure;Samples;Min_cycle;Max_cycle;Signal;HPM_P1;HPM_P2
2022/11/27 00:01:39;;;;;;;10.43;4.25;;;6.50;99.90;;;;;;5034586;28;20048;-76
2022/11/27 00:04:06;;;;;;;15.23;4.60;;;6.50;99.90;;;;;;5035878;28;20501;-76
2022/11/27 00:06:32;;;;;;;19.13;5.75;;;6.50;99.90;;;;;;5035981;28;20030;-77
2022/11/27 00:09:00;;;;;;;11.77;5.07;;;6.50;99.90;;;;;;5034498;28;20040;-76
2022/11/27 00:11:28;;;;;;;14.15;4.32;;;6.50;99.90;;;;;;5036240;28;20036;-75
2022/11/27 00:13:53;;;;;;;14.85;6.07;;;6.50;99.90;;;;;;5035817;28;20032;-78
2022/11/27 00:16:20;;;;;;;13.93;4.50;;;6.60;99.90;;;;;;5034787;28;20030;-75
2022/11/27 00:18:46;;;;;;;9.15;4.40;;;6.60;99.90;;;;;;5035968;28;20034;-76
2022/11/27 00:21:24;;;;;;;12.55;4.63;;;6.60;99.90;;;;;;5036214;28;20025;-77
2022/11/27 00:23:51;;;;;;;11.02;4.07;;;6.70;99.90;;;;;;5023919;28;20037;-77
2022/11/27 00:26:17;;;;;;;14.88;5.32;;;6.70;99.90;;;;;;5035732;28;20545;-76
2022/11/27 00:28:42;;;;;;;12.52;4.07;;;6.70;99.90;;;;;;5035297;28;20038;-77
2022/11/27 00:31:21;;;;;;;10.30;4.10;;;6.70;99.90;;;;;;5034107;28;20462;-77
2022/11/27 00:33:47;;;;;;;11.77;4.43;;;6.70;99.90;;;;;;5034675;28;20117;-76
2022/11/27 00:36:14;;;;;;;14.55;5.13;;;6.70;99.90;;;;;;5034153;28;20513;-75
2022/11/27 00:38:39;;;;;;;18.00;5.60;;;6.70;99.90;;;;;;5035166;28;20469;-76
2022/11/27 00:41:10;;;;;;;12.77;4.68;;;6.70;99.90;;;;;;5035062;28;20018;-76
2022/11/27 00:43:37;;;;;;;14.10;4.57;;;6.70;99.90;;;;;;5036447;28;20044;-76
2022/11/27 00:46:02;;;;;;;10.80;4.60;;;6.60;99.90;;;;;;5035643;28;20130;-77
2022/11/27 00:48:28;;;;;;;12.60;4.43;;;6.60;99.90;;;;;;5035246;28;20138;-76
2022/11/27 00:51:02;;;;;;;10.73;4.50;;;6.50;99.90;;;;;;5033729;28;20032;-76
2022/11/27 00:53:30;;;;;;;15.60;4.57;;;6.40;99.90;;;;;;5034671;28;20037;-75
2022/11/27 00:55:56;;;;;;;15.60;4.60;;;6.50;99.90;;;;;;5033980;28;20470;-77
2022/11/27 00:58:23;;;;;;;14.43;4.70;;;6.40;99.90;;;;;;5034573;28;20032;-76
2022/11/27 01:01:02;;;;;;;15.70;4.35;;;6.40;99.90;;;;;;5034438;28;20385;-77
2022/11/27 01:03:29;;;;;;;15.27;4.53;;;6.40;99.90;;;;;;5035118;28;20030;-76
2022/11/27 01:05:55;;;;;;;13.23;4.47;;;6.40;99.90;;;;;;5034401;28;20057;-76
2022/11/27 01:08:20;;;;;;;12.65;4.90;;;6.40;99.90;;;;;;5034450;28;20071;-76
2022/11/27 01:10:51;;;;;;;17.38;4.65;;;6.40;99.90;;;;;;5035300;28;20081;-78
2022/11/27 01:13:17;;;;;;;9.70;4.72;;;6.40;99.90;;;;;;5033410;28;20580;-76
2022/11/27 01:15:44;;;;;;;17.65;4.45;;;6.40;99.90;;;;;;5034169;28;20036;-75
2022/11/27 01:18:10;;;;;;;16.73;4.88;;;6.50;99.90;;;;;;5033868;28;20477;-76
2022/11/27 01:20:39;;;;;;;17.58;5.40;;;6.40;99.90;;;;;;5035855;28;20025;-76
2022/11/27 01:23:06;;;;;;;12.50;3.72;;;6.50;99.90;;;;;;5035221;28;20112;-75
2022/11/27 01:25:34;;;;;;;10.48;4.68;;;6.50;99.90;;;;;;5034031;28;20049;-75
2022/11/27 01:28:00;;;;;;;17.02;4.25;;;6.50;99.90;;;;;;5034198;28;20068;-77
2022/11/27 01:30:25;;;;;;;13.05;5.20;;;6.40;99.90;;;;;;5034107;28;20481;-75
2022/11/27 01:32:52;;;;;;;13.48;4.60;;;6.50;99.90;;;;;;5033026;28;20434;-76
2022/11/27 01:35:17;;;;;;;14.18;4.55;;;6.50;99.90;;;;;;5034135;28;20064;-75
2022/11/27 01:37:43;;;;;;;20.65;5.85;;;6.50;99.90;;;;;;5034913;28;20099;-75
2022/11/27 01:40:12;;;;;;;10.88;4.50;;;6.60;99.90;;;;;;5033877;28;20472;-76
2022/11/27 01:42:40;;;;;;;12.73;5.05;;;6.60;99.90;;;;;;5034131;28;20022;-76
2022/11/27 01:45:09;;;;;;;13.63;5.85;;;6.60;99.90;;;;;;5034478;28;20113;-76
2022/11/27 01:47:42;;;;;;;12.48;4.78;;;6.60;99.90;;;;;;5033329;28;20049;-76
2022/11/27 01:50:12;;;;;;;12.00;4.00;;;6.50;99.90;;;;;;5034165;28;20025;-76
2022/11/27 01:52:42;;;;;;;11.10;4.03;;;6.40;99.90;;;;;;5033661;28;20040;-76
2022/11/27 01:55:10;;;;;;;12.40;4.00;;;6.40;99.90;;;;;;5033038;28;20386;-76
2022/11/27 01:57:46;;;;;;;12.07;4.13;;;6.40;99.90;;;;;;5033756;28;20032;-76
2022/11/27 02:00:14;;;;;;;14.35;4.50;;;6.40;99.90;;;;;;5033751;28;20456;-76
2022/11/27 02:02:46;;;;;;;13.98;3.83;;;6.40;99.90;;;;;;5034035;28;20117;-76
2022/11/27 02:05:16;;;;;;;14.63;5.03;;;6.30;99.90;;;;;;5034479;28;20041;-76
2022/11/27 02:07:42;;;;;;;9.73;4.57;;;6.40;99.90;;;;;;5033346;28;20044;-76
2022/11/27 02:10:08;;;;;;;12.73;4.10;;;6.40;99.90;;;;;;5033460;28;20033;-76
2022/11/27 02:13:00;;;;;;;11.63;3.90;;;6.30;99.90;;;;;;5033427;28;20021;-77
2022/11/27 02:15:42;;;;;;;14.45;4.38;;;6.40;99.90;;;;;;5022518;28;20032;-76
2022/11/27 02:18:29;;;;;;;14.15;4.57;;;6.30;99.90;;;;;;5033653;28;20042;-75
2022/11/27 02:21:18;;;;;;;11.77;3.67;;;6.30;99.90;;;;;;5021774;28;20046;-74
2022/11/27 02:24:12;;;;;;;8.10;3.67;;;6.30;99.90;;;;;;5032735;28;20033;-76
2022/11/27 02:27:33;;;;;;;10.52;3.47;;;6.30;99.90;;;;;;5033690;28;20041;-75
2022/11/27 02:30:02;;;;;;;12.77;4.28;;;6.30;99.90;;;;;;5009709;28;20329;-76
2022/11/27 02:32:55;;;;;;;8.98;3.65;;;6.30;99.90;;;;;;5025165;28;20038;-74
2022/11/27 02:35:44;;;;;;;10.30;3.42;;;6.30;99.90;;;;;;5030885;28;20065;-75
2022/11/27 02:38:20;;;;;;;11.80;3.22;;;6.40;99.90;;;;;;5032838;28;20026;-76
2022/11/27 02:40:59;;;;;;;12.30;3.33;;;6.40;99.90;;;;;;5033001;28;20018;-75
2022/11/27 02:43:39;;;;;;;6.90;3.38;;;6.40;99.90;;;;;;5034050;28;20025;-75
2022/11/27 02:46:07;;;;;;;8.25;3.00;;;6.50;99.90;;;;;;5037023;28;20048;-77
2022/11/27 02:48:43;;;;;;;9.70;4.32;;;6.50;99.90;;;;;;5032954;28;20033;-76
2022/11/27 02:51:11;;;;;;;6.10;3.50;;;6.60;99.90;;;;;;5033028;28;20036;-76
2022/11/27 02:53:44;;;;;;;9.98;4.38;;;6.50;99.90;;;;;;5034372;28;20037;-76
2022/11/27 02:56:16;;;;;;;8.93;3.88;;;6.60;99.90;;;;;;5033354;28;20489;-77
2022/11/27 02:58:44;;;;;;;11.80;3.42;;;6.60;99.90;;;;;;5032562;28;20527;-78
2022/11/27 03:01:11;;;;;;;9.60;3.80;;;6.60;99.90;;;;;;5033399;28;20036;-77
2022/11/27 03:03:41;;;;;;;6.68;3.20;;;6.60;99.90;;;;;;5034453;28;20438;-77
2022/11/27 03:06:10;;;;;;;8.77;3.55;;;6.60;99.90;;;;;;5033522;28;20091;-77
2022/11/27 03:08:50;;;;;;;10.30;4.07;;;6.70;99.90;;;;;;5019451;28;20100;-75
2022/11/27 03:11:16;;;;;;;8.50;3.75;;;6.60;99.90;;;;;;5026068;28;20022;-75
2022/11/27 03:13:45;;;;;;;9.43;4.13;;;6.60;99.90;;;;;;5028092;28;20599;-76
2022/11/27 03:16:23;;;;;;;10.10;4.05;;;6.70;99.90;;;;;;5033379;28;20545;-77
2022/11/27 03:19:10;;;;;;;8.52;3.45;;;6.70;99.90;;;;;;5032523;28;20060;-75
2022/11/27 03:21:42;;;;;;;11.27;4.05;;;6.80;99.90;;;;;;5033437;28;20025;-76
2022/11/27 03:24:08;;;;;;;12.90;3.97;;;6.70;99.90;;;;;;5035027;28;20025;-77
2022/11/27 03:26:35;;;;;;;10.77;3.70;;;6.70;99.90;;;;;;5036285;28;20423;-76
2022/11/27 03:29:03;;;;;;;12.73;4.15;;;6.80;99.90;;;;;;5023163;28;20084;-76
2022/11/27 03:31:30;;;;;;;12.73;4.50;;;6.70;99.90;;;;;;5036332;28;20108;-76
2022/11/27 03:33:56;;;;;;;7.63;4.10;;;6.70;99.90;;;;;;5035911;28;20026;-76
2022/11/27 03:36:21;;;;;;;12.63;4.50;;;6.70;99.90;;;;;;5036234;28;20512;-76
2022/11/27 03:38:49;;;;;;;8.45;4.75;;;6.70;99.90;;;;;;5036016;28;20025;-76
2022/11/27 03:41:39;;;;;;;6.75;4.10;;;6.70;99.90;;;;;;5036080;28;20474;-76
2022/11/27 03:44:33;;;;;;;8.40;4.07;;;6.70;99.90;;;;;;5036636;28;20029;-76
2022/11/27 03:47:25;;;;;;;13.32;4.07;;;6.70;99.90;;;;;;5023135;28;20578;-77
2022/11/27 03:50:16;;;;;;;8.73;4.15;;;6.80;99.90;;;;;;5018023;28;20060;-75
2022/11/27 03:52:51;;;;;;;9.15;3.90;;;6.70;99.90;;;;;;5037024;28;20032;-75
2022/11/27 03:55:31;;;;;;;11.20;4.20;;;6.80;99.90;;;;;;5036070;28;20036;-76
2022/11/27 03:58:16;;;;;;;;;;;6.80;99.90;;;;;;5037117;28;20025;-76
2022/11/27 04:00:43;;;;;;;9.00;3.72;;;6.80;99.90;;;;;;5024532;28;19905;-75
2022/11/27 04:03:12;;;;;;;12.77;4.45;;;6.80;99.90;;;;;;5036659;28;20061;-75
2022/11/27 04:05:38;;;;;;;11.15;3.78;;;6.80;99.90;;;;;;5036711;28;20033;-76
2022/11/27 04:08:04;;;;;;;10.85;4.32;;;6.80;99.90;;;;;;5035076;28;20474;-76
2022/11/27 04:10:30;;;;;;;9.02;4.13;;;6.80;99.90;;;;;;5036741;28;20036;-76
2022/11/27 04:12:58;;;;;;;5.80;3.90;;;6.80;99.90;;;;;;5035761;28;20060;-76
2022/11/27 04:15:23;;;;;;;8.95;3.97;;;6.80;99.90;;;;;;5035876;28;20026;-75
2022/11/27 04:17:49;;;;;;;5.43;3.78;;;6.80;99.90;;;;;;5036573;28;20032;-75
2022/11/27 04:20:15;;;;;;;7.65;4.18;;;6.80;99.90;;;;;;5036239;28;20470;-77
2022/11/27 04:22:40;;;;;;;9.10;3.70;;;6.80;99.90;;;;;;5035257;28;20415;-74
2022/11/27 04:25:06;;;;;;;10.75;4.55;;;6.80;99.90;;;;;;5035536;28;20140;-75
2022/11/27 04:27:32;;;;;;;11.13;4.20;;;6.70;99.90;;;;;;5037435;28;20037;-76
2022/11/27 04:29:57;;;;;;;6.70;3.97;;;6.80;99.90;;;;;;5035352;28;20021;-75
2022/11/27 04:32:23;;;;;;;12.38;3.78;;;6.70;99.90;;;;;;5036632;28;20025;-74
2022/11/27 04:34:48;;;;;;;9.73;3.83;;;6.80;99.90;;;;;;5036119;28;20104;-75
2022/11/27 04:37:14;;;;;;;6.55;3.60;;;6.70;99.90;;;;;;5035770;28;20026;-75
2022/11/27 04:39:40;;;;;;;8.30;3.83;;;6.80;99.90;;;;;;5035666;28;20113;-75
2022/11/27 04:42:06;;;;;;;9.55;3.38;;;6.80;99.90;;;;;;5035455;28;20032;-75
2022/11/27 04:44:31;;;;;;;8.73;3.30;;;6.80;99.90;;;;;;5035325;28;20045;-76
2022/11/27 04:46:57;;;;;;;4.57;3.35;;;6.80;99.90;;;;;;5037384;28;20381;-76
2022/11/27 04:49:22;;;;;;;7.50;3.35;;;6.90;99.90;;;;;;5035822;28;20033;-77
2022/11/27 04:51:48;;;;;;;6.35;3.00;;;6.90;99.90;;;;;;5035456;28;20017;-76
2022/11/27 04:54:13;;;;;;;8.65;3.25;;;6.90;99.90;;;;;;5036109;28;20057;-77
2022/11/27 04:56:39;;;;;;;6.47;3.30;;;6.90;99.90;;;;;;5036369;28;20017;-74
2022/11/27 04:59:04;;;;;;;4.05;3.65;;;7.00;99.90;;;;;;5028085;28;20418;-77
2022/11/27 05:01:30;;;;;;;9.98;3.67;;;7.00;99.90;;;;;;5031183;28;20485;-76
2022/11/27 05:03:56;;;;;;;6.75;3.33;;;7.00;99.90;;;;;;5035453;28;20470;-76
2022/11/27 05:06:21;;;;;;;6.00;3.45;;;7.00;99.90;;;;;;5036236;28;20021;-78
2022/11/27 05:08:48;;;;;;;7.22;3.17;;;7.00;99.90;;;;;;5036011;28;20477;-78
2022/11/27 05:11:16;;;;;;;5.07;3.05;;;7.00;99.90;;;;;;5034145;28;20017;-77
2022/11/27 05:13:42;;;;;;;6.85;3.10;;;7.00;99.90;;;;;;5034552;28;20025;-77
2022/11/27 05:16:09;;;;;;;8.60;2.92;;;7.00;99.90;;;;;;5035327;28;20029;-77
2022/11/27 05:18:34;;;;;;;6.47;2.95;;;7.00;99.90;;;;;;5036025;28;20130;-76
2022/11/27 05:21:03;;;;;;;8.10;3.65;;;7.00;99.90;;;;;;5035887;28;20025;-76
2022/11/27 05:23:29;;;;;;;7.05;3.50;;;6.90;99.90;;;;;;5036084;28;20025;-77
2022/11/27 05:25:57;;;;;;;7.45;3.60;;;6.90;99.90;;;;;;5034454;28;20050;-76
2022/11/27 05:28:23;;;;;;;5.20;3.40;;;6.90;99.90;;;;;;5035326;28;20027;-76
2022/11/27 05:30:49;;;;;;;6.63;3.25;;;6.90;99.90;;;;;;5022226;28;20021;-76
2022/11/27 05:33:18;;;;;;;8.10;3.50;;;6.90;99.90;;;;;;5036666;28;20044;-77
2022/11/27 05:35:44;;;;;;;6.43;3.35;;;6.90;99.90;;;;;;5037181;28;20025;-78
2022/11/27 05:38:11;;;;;;;6.13;2.85;;;6.90;99.90;;;;;;5035836;28;20080;-76
2022/11/27 05:40:37;;;;;;;6.35;3.58;;;7.00;99.90;;;;;;5034589;28;20440;-78
2022/11/27 05:43:02;;;;;;;5.65;3.35;;;7.00;99.90;;;;;;5033787;28;20109;-77
2022/11/27 05:45:28;;;;;;;5.50;3.20;;;7.00;99.90;;;;;;5033849;28;20056;-76
2022/11/27 05:47:54;;;;;;;9.07;3.35;;;7.00;99.90;;;;;;5034228;28;20083;-77
2022/11/27 05:50:19;;;;;;;6.88;3.00;;;6.90;99.90;;;;;;5035073;28;20030;-76
2022/11/27 05:52:45;;;;;;;6.40;3.10;;;6.90;99.90;;;;;;5034089;28;20068;-77
2022/11/27 05:55:10;;;;;;;9.68;3.55;;;6.90;99.90;;;;;;5034222;28;20037;-76
2022/11/27 05:57:36;;;;;;;7.25;2.90;;;6.90;99.90;;;;;;5034729;28;20021;-76
2022/11/27 06:00:03;;;;;;;9.98;3.22;;;6.90;99.90;;;;;;5032836;28;20037;-76
2022/11/27 06:02:29;;;;;;;6.15;2.88;;;7.00;99.90;;;;;;5034794;28;20389;-76
2022/11/27 06:04:54;;;;;;;4.97;3.17;;;6.90;99.90;;;;;;5035019;28;20031;-75
2022/11/27 06:07:20;;;;;;;6.97;2.95;;;7.00;99.90;;;;;;5033675;28;20036;-77
2022/11/27 06:09:45;;;;;;;7.63;3.08;;;7.00;99.90;;;;;;5034567;28;20128;-75
2022/11/27 06:12:11;;;;;;;8.77;3.70;;;6.90;99.90;;;;;;5035340;28;20102;-77
2022/11/27 06:14:36;;;;;;;6.22;3.50;;;6.90;99.90;;;;;;5034600;28;20049;-76
2022/11/27 06:17:03;;;;;;;12.80;4.85;;;7.00;99.90;;;;;;5033804;28;20021;-76
2022/11/27 06:19:29;;;;;;;12.77;3.83;;;7.00;99.90;;;;;;5025935;28;20029;-77
2022/11/27 06:21:54;;;;;;;9.50;3.25;;;7.00;99.90;;;;;;5027880;28;20025;-76
2022/11/27 06:24:20;;;;;;;7.65;3.38;;;6.90;99.90;;;;;;5034157;28;20072;-77
2022/11/27 06:26:46;;;;;;;8.40;3.15;;;6.90;99.90;;;;;;5033087;28;20053;-77
2022/11/27 06:29:11;;;;;;;5.55;3.10;;;6.90;99.90;;;;;;5017051;28;20041;-78
2022/11/27 06:31:38;;;;;;;9.32;3.28;;;7.00;99.90;;;;;;5023124;28;20022;-79
2022/11/27 06:34:05;;;;;;;6.55;3.03;;;6.90;99.90;;;;;;5013852;28;20049;-80
2022/11/27 06:36:36;;;;;;;8.05;3.22;;;6.90;99.90;;;;;;5015839;28;20018;-80
2022/11/27 06:39:04;;;;;;;8.48;3.30;;;6.90;99.90;;;;;;5018142;28;20386;-79
2022/11/27 06:41:31;;;;;;;4.43;3.70;;;6.60;99.90;;;;;;5017423;28;20026;-79
2022/11/27 06:43:58;;;;;;;6.80;3.35;;;6.90;99.90;;;;;;5014627;28;20207;-78
2022/11/27 06:46:24;;;;;;;5.22;3.00;;;6.90;99.90;;;;;;5019534;28;20033;-77
2022/11/27 06:48:51;;;;;;;5.75;3.35;;;6.80;99.90;;;;;;5014193;28;20560;-78
2022/11/27 06:51:20;;;;;;;9.93;3.13;;;6.90;99.90;;;;;;5016253;28;20105;-77
2022/11/27 06:53:46;;;;;;;9.68;4.45;;;6.90;99.90;;;;;;5026955;28;20040;-78
2022/11/27 06:56:15;;;;;;;8.10;2.72;;;6.90;99.90;;;;;;5032127;28;20025;-78
2022/11/27 06:58:41;;;;;;;10.50;3.30;;;6.90;99.90;;;;;;5025496;28;20108;-78
2022/11/27 07:01:11;;;;;;;10.75;3.05;;;6.90;99.90;;;;;;5022837;28;20026;-78
2022/11/27 07:03:37;;;;;;;7.85;3.58;;;6.90;99.90;;;;;;5031688;28;20025;-77
2022/11/27 07:06:05;;;;;;;10.80;3.78;;;6.90;99.90;;;;;;5020944;28;20026;-77
2022/11/27 07:08:32;;;;;;;8.45;3.72;;;6.90;99.90;;;;;;5015672;28;20041;-78
2022/11/27 07:11:06;;;;;;;10.93;4.25;;;6.90;99.90;;;;;;5017873;28;20018;-77
2022/11/27 07:13:32;;;;;;;8.15;3.42;;;6.90;99.90;;;;;;5019326;28;20045;-78
2022/11/27 07:16:00;;;;;;;6.80;3.50;;;6.90;99.90;;;;;;5029560;28;20051;-77
2022/11/27 07:18:28;;;;;;;12.25;3.53;;;6.90;99.90;;;;;;5032729;28;20486;-77
2022/11/27 07:20:54;;;;;;;5.30;3.00;;;6.90;99.90;;;;;;5031428;28;20072;-78
2022/11/27 07:23:20;;;;;;;7.68;3.50;;;6.90;99.90;;;;;;5032705;28;20025;-77
2022/11/27 07:25:46;;;;;;;6.30;3.92;;;6.90;99.90;;;;;;5030201;28;20045;-77
2022/11/27 07:28:11;;;;;;;5.25;3.50;;;6.90;99.90;;;;;;5030495;28;20032;-77
2022/11/27 07:30:37;;;;;;;7.28;3.42;;;7.00;99.90;;;;;;5030487;28;20025;-78
2022/11/27 07:33:03;;;;;;;8.73;3.25;;;6.90;99.90;;;;;;5030664;28;20175;-76
2022/11/27 07:35:28;;;;;;;11.88;4.35;;;6.90;99.90;;;;;;5030967;28;20022;-77
2022/11/27 07:37:54;;;;;;;8.32;4.05;;;6.90;99.90;;;;;;5029587;28;20033;-78
2022/11/27 07:40:19;;;;;;;8.50;3.83;;;6.90;99.90;;;;;;5031190;28;20037;-77
2022/11/27 07:42:45;;;;;;;7.00;3.90;;;6.90;99.90;;;;;;5031531;28;20040;-76
2022/11/27 07:45:11;;;;;;;7.93;3.83;;;7.50;99.90;;;;;;5030265;28;20358;-77
2022/11/27 07:47:37;;;;;;;7.47;3.42;;;6.90;99.90;;;;;;5031078;28;20029;-77
2022/11/27 07:50:06;;;;;;;8.98;3.38;;;7.00;99.90;;;;;;5030662;28;20482;-77
2022/11/27 07:52:34;;;;;;;8.05;3.53;;;7.00;99.90;;;;;;5030486;28;20028;-77
2022/11/27 07:54:59;;;;;;;7.85;3.67;;;6.90;99.90;;;;;;5030627;28;20068;-77
2022/11/27 07:57:26;;;;;;;9.95;4.47;;;7.00;99.90;;;;;;5030804;28;20049;-76
2022/11/27 07:59:52;;;;;;;10.50;3.45;;;7.00;99.90;;;;;;5029326;28;20045;-77
2022/11/27 08:02:17;;;;;;;11.40;3.65;;;7.00;99.90;;;;;;5031146;28;20032;-77
2022/11/27 08:04:43;;;;;;;8.55;3.35;;;7.00;99.90;;;;;;5031069;28;20029;-78
2022/11/27 08:07:08;;;;;;;8.88;4.15;;;7.00;99.90;;;;;;5030939;28;20029;-83
2022/11/27 08:09:34;;;;;;;8.07;3.50;;;7.10;99.90;;;;;;5032506;28;20045;-82
2022/11/27 08:12:00;;;;;;;8.95;3.75;;;7.10;99.90;;;;;;5035980;28;20029;-81
2022/11/27 08:14:25;;;;;;;10.25;3.83;;;7.10;99.90;;;;;;5036139;28;20021;-81
2022/11/27 08:16:51;;;;;;;6.78;3.67;;;7.20;99.90;;;;;;5035322;28;20052;-81
2022/11/27 08:19:23;;;;;;;9.48;4.03;;;7.20;99.90;;;;;;5036870;28;20068;-83
2022/11/27 08:21:49;;;;;;;10.15;3.78;;;7.20;99.90;;;;;;5036231;28;20065;-82
2022/11/27 08:24:14;;;;;;;9.80;4.28;;;7.30;99.90;;;;;;5050741;28;20503;-84
2022/11/27 08:26:40;;;;;;;6.30;3.67;;;7.20;99.90;;;;;;5036852;28;20087;-82
2022/11/27 08:29:06;;;;;;;9.13;3.92;;;7.20;99.90;;;;;;5036203;28;20044;-83
2022/11/27 08:31:32;;;;;;;9.60;4.13;;;7.20;99.90;;;;;;5022732;28;20100;-83
2022/11/27 08:33:58;;;;;;;10.90;3.75;;;7.20;99.90;;;;;;5035339;28;20025;-80
2022/11/27 08:36:25;;;;;;;8.27;4.32;;;7.30;99.90;;;;;;5034252;28;20032;-79
2022/11/27 08:38:51;;;;;;;8.25;4.70;;;7.20;99.90;;;;;;5023411;28;20076;-76
2022/11/27 08:41:17;;;;;;;10.35;4.50;;;7.20;99.90;;;;;;5019070;28;20545;-78
2022/11/27 08:43:42;;;;;;;14.98;4.97;;;7.20;99.90;;;;;;5030972;28;20021;-80
2022/11/27 08:46:08;;;;;;;9.63;4.18;;;7.30;99.90;;;;;;5035016;28;20120;-77
2022/11/27 08:48:34;;;;;;;9.25;4.38;;;7.30;99.90;;;;;;5032175;28;20309;-77
2022/11/27 08:51:10;;;;;;;9.43;4.78;;;7.30;99.90;;;;;;5036064;28;20030;-77
2022/11/27 08:53:36;;;;;;;8.38;4.93;;;7.20;99.90;;;;;;5036174;28;20029;-77
2022/11/27 08:56:17;;;;;;;9.23;4.68;;;7.30;99.90;;;;;;5034256;28;20025;-77
2022/11/27 08:58:44;;;;;;;11.93;5.00;;;7.30;99.90;;;;;;5034820;28;20079;-79
2022/11/27 09:01:13;;;;;;;11.05;4.20;;;7.30;99.90;;;;;;5033880;28;20553;-79
2022/11/27 09:03:39;;;;;;;7.45;4.43;;;7.30;99.90;;;;;;5033981;28;20088;-82
2022/11/27 09:06:10;;;;;;;8.93;4.18;;;7.40;99.90;;;;;;5034141;28;20017;-79
2022/11/27 09:08:36;;;;;;;7.90;4.75;;;7.40;99.90;;;;;;5032225;28;20037;-79
2022/11/27 09:11:03;;;;;;;9.07;4.70;;;7.40;99.90;;;;;;5032868;28;20030;-78
2022/11/27 09:13:29;;;;;;;9.52;4.78;;;7.40;99.90;;;;;;5032998;28;20056;-78
2022/11/27 09:15:56;;;;;;;11.55;4.68;;;7.40;99.90;;;;;;5033532;28;20052;-79
2022/11/27 09:18:22;;;;;;;8.10;4.88;;;7.50;99.90;;;;;;5032870;28;20065;-78
2022/11/27 09:21:06;;;;;;;13.55;4.90;;;7.50;99.90;;;;;;5033308;28;20065;-80
2022/11/27 09:23:32;;;;;;;12.32;4.97;;;7.60;99.90;;;;;;5031862;28;20028;-78
2022/11/27 09:26:02;;;;;;;14.68;5.70;;;7.50;99.90;;;;;;5032723;28;20049;-79
2022/11/27 09:28:28;;;;;;;;;;;7.50;99.90;;;;;;5034893;28;20045;-78
2022/11/27 09:30:55;;;;;;;9.07;4.60;;;7.60;99.90;;;;;;5032455;28;19905;-78
2022/11/27 09:33:21;;;;;;;10.02;5.28;;;7.60;99.90;;;;;;5033680;28;20033;-77
2022/11/27 09:35:47;;;;;;;8.60;5.03;;;7.60;99.90;;;;;;5032096;28;20028;-77
2022/11/27 09:38:12;;;;;;;9.60;4.82;;;7.70;99.90;;;;;;5030288;28;20025;-78
2022/11/27 09:40:43;;;;;;;9.95;4.72;;;7.60;99.90;;;;;;5031012;28;20022;-77
2022/11/27 09:43:10;;;;;;;13.18;5.32;;;7.70;99.90;;;;;;5028181;28;20619;-77
2022/11/27 09:45:54;;;;;;;10.95;5.28;;;7.70;99.90;;;;;;5030335;28;20028;-78
2022/11/27 09:48:32;;;;;;;9.30;5.13;;;7.70;99.90;;;;;;5033209;28;20036;-77
2022/11/27 09:51:01;;;;;;;9.07;5.45;;;7.70;99.90;;;;;;5032619;28;20025;-77
2022/11/27 09:53:38;;;;;;;10.43;5.82;;;7.80;99.90;;;;;;5032778;28;20026;-78
2022/11/27 09:56:08;;;;;;;12.85;5.13;;;7.80;99.90;;;;;;5033678;28;20022;-78
2022/11/27 09:58:36;;;;;;;11.93;5.40;;;7.80;99.90;;;;;;5030181;28;20088;-76
2022/11/27 10:01:13;;;;;;;11.55;5.25;;;7.80;99.90;;;;;;5030098;28;20025;-76
2022/11/27 10:03:43;;;;;;;11.13;5.53;;;7.80;99.90;;;;;;5027346;28;20108;-76
2022/11/27 10:06:42;;;;;;;11.32;4.63;;;7.80;99.90;;;;;;5031938;28;20090;-76
2022/11/27 10:09:23;;;;;;;10.70;4.68;;;7.80;99.90;;;;;;5026756;28;20035;-79
2022/11/27 10:12:17;;;;;;;9.43;4.40;;;7.80;99.90;;;;;;5030077;28;20095;-77
2022/11/27 10:14:58;;;;;;;9.55;4.72;;;7.80;99.90;;;;;;5033243;28;20029;-76
2022/11/27 10:17:42;;;;;;;9.32;4.70;;;7.80;99.90;;;;;;5033519;28;20030;-76
2022/11/27 10:20:27;;;;;;;9.93;4.45;;;7.80;99.90;;;;;;5031495;28;20022;-77
2022/11/27 10:23:03;;;;;;;9.98;4.60;;;7.80;99.90;;;;;;5031252;28;20029;-73
2022/11/27 10:25:39;;;;;;;8.00;4.85;;;7.10;99.90;;;;;;5031833;28;20468;-76
2022/11/27 10:28:28;;;;;;;7.90;5.15;;;7.90;99.90;;;;;;5029256;28;20369;-76
2022/11/27 10:31:09;;;;;;;7.70;4.55;;;7.90;99.90;;;;;;5035355;28;20025;-76
2022/11/27 10:33:44;;;;;;;6.75;4.65;;;7.80;99.90;;;;;;5030666;28;20033;-75
2022/11/27 10:36:27;;;;;;;11.82;4.65;;;7.80;99.90;;;;;;5019735;28;20382;-76
2022/11/27 10:38:54;;;;;;;7.07;4.65;;;7.70;99.90;;;;;;5033887;28;20512;-75
2022/11/27 10:41:36;;;;;;;8.55;4.93;;;7.90;99.90;;;;;;5034147;28;20033;-75
2022/11/27 10:44:34;;;;;;;6.93;4.00;;;7.90;99.90;;;;;;5033247;28;20068;-76
2022/11/27 10:47:11;;;;;;;9.63;4.35;;;7.90;99.90;;;;;;5025043;28;20036;-74
2022/11/27 10:49:39;;;;;;;6.93;5.03;;;8.00;99.90;;;;;;5034412;28;20060;-76
2022/11/27 10:52:09;;;;;;;6.85;4.50;;;8.00;99.90;;;;;;5030254;28;20044;-77
2022/11/27 10:54:37;;;;;;;8.93;4.57;;;8.00;99.90;;;;;;5019778;28;20026;-75
2022/11/27 10:57:39;;;;;;;8.48;5.20;;;8.00;99.90;;;;;;5023352;28;20036;-76
2022/11/27 11:00:22;;;;;;;8.23;4.30;;;8.00;99.90;;;;;;5023133;28;20024;-75
2022/11/27 11:02:57;;;;;;;6.72;4.43;;;8.10;99.90;;;;;;5033372;28;20470;-76
2022/11/27 11:05:25;;;;;;;10.82;5.00;;;8.10;99.90;;;;;;5033128;28;20034;-76
2022/11/27 11:08:16;;;;;;;11.15;5.07;;;8.00;99.90;;;;;;5032327;28;20540;-76
2022/11/27 11:11:03;;;;;;;12.30;4.90;;;8.00;99.90;;;;;;5032697;28;20025;-75
2022/11/27 11:13:31;;;;;;;10.02;4.28;;;8.10;99.90;;;;;;5032342;28;20025;-74
2022/11/27 11:16:03;;;;;;;7.18;4.63;;;8.20;99.90;;;;;;5031614;28;20032;-75
2022/11/27 11:18:30;;;;;;;9.80;4.20;;;8.10;99.90;;;;;;5033122;28;20037;-76
2022/11/27 11:20:58;;;;;;;6.55;4.25;;;8.20;99.90;;;;;;5033786;28;20021;-74
2022/11/27 11:23:29;;;;;;;5.63;4.00;;;8.20;99.90;;;;;;5032502;28;20031;-75
2022/11/27 11:25:56;;;;;;;;;;;8.30;99.90;;;;;;5032813;28;20046;-76
2022/11/27 11:28:24;;;;;;;6.90;3.75;;;8.30;99.90;;;;;;5033109;28;19968;-76
2022/11/27 11:30:59;;;;;;;6.68;3.85;;;8.40;99.90;;;;;;5031720;28;20036;-75
2022/11/27 11:33:26;;;;;;;10.10;4.47;;;8.40;99.90;;;;;;5033087;28;20025;-75
2022/11/27 11:35:54;;;;;;;8.18;4.63;;;8.40;99.90;;;;;;5032184;28;20037;-77
2022/11/27 11:38:26;;;;;;;9.38;4.47;;;8.50;99.90;;;;;;5030944;28;20025;-75
2022/11/27 11:41:04;;;;;;;11.35;4.90;;;8.50;99.90;;;;;;5032022;28;20029;-74
2022/11/27 11:43:34;;;;;;;6.50;4.20;;;8.50;99.90;;;;;;5019507;28;20029;-75
2022/11/27 11:46:21;;;;;;;7.68;4.55;;;8.50;99.90;;;;;;5035080;28;20041;-75
2022/11/27 11:48:59;;;;;;;6.78;4.25;;;8.60;99.90;;;;;;5022610;28;20478;-74
2022/11/27 11:52:02;;;;;;;8.02;4.80;;;8.60;99.90;;;;;;5025403;28;20033;-76
2022/11/27 11:54:40;;;;;;;9.30;4.53;;;8.50;99.90;;;;;;5023074;28;20308;-76
2022/11/27 11:57:35;;;;;;;5.40;4.32;;;8.70;99.90;;;;;;5022014;28;20026;-76
2022/11/27 12:00:10;;;;;;;9.48;4.55;;;8.60;99.90;;;;;;5035925;28;20105;-76
2022/11/27 12:02:45;;;;;;;10.10;6.28;;;8.70;99.90;;;;;;5035490;28;20032;-77
2022/11/27 12:05:30;;;;;;;8.10;4.13;;;8.70;99.90;;;;;;5034907;28;20037;-76
2022/11/27 12:08:04;;;;;;;6.40;5.40;;;8.70;99.90;;;;;;5034519;28;20032;-75
2022/11/27 12:10:36;;;;;;;5.43;4.15;;;8.80;99.90;;;;;;5039201;28;20029;-76
2022/11/27 12:13:10;;;;;;;10.73;3.88;;;8.70;99.90;;;;;;5035652;28;20021;-77
2022/11/27 12:16:03;;;;;;;5.57;4.07;;;8.80;99.90;;;;;;5035573;28;20119;-76
2022/11/27 12:18:47;;;;;;;6.35;4.35;;;8.80;99.90;;;;;;5036091;28;20055;-75
2022/11/27 12:21:22;;;;;;;9.23;3.95;;;8.80;99.90;;;;;;5034545;28;20021;-76
2022/11/27 12:23:57;;;;;;;5.75;4.20;;;8.80;99.90;;;;;;5035513;28;20028;-75
2022/11/27 12:26:25;;;;;;;8.77;4.93;;;8.90;99.90;;;;;;5034340;28;20102;-74
2022/11/27 12:29:03;;;;;;;5.60;3.72;;;8.80;99.90;;;;;;5035123;28;20148;-77
2022/11/27 12:31:56;;;;;;;6.68;4.70;;;8.80;99.90;;;;;;5035244;28;20026;-75
2022/11/27 12:34:37;;;;;;;8.02;4.20;;;8.80;99.90;;;;;;5034846;28;20087;-76
2022/11/27 12:37:24;;;;;;;5.55;4.05;;;8.80;99.90;;;;;;5034753;28;20067;-77
2022/11/27 12:40:34;;;;;;;6.43;4.70;;;8.80;99.90;;;;;;5033241;28;20032;-76
2022/11/27 12:43:22;;;;;;;8.32;4.95;;;8.70;99.90;;;;;;5034585;28;20033;-76
2022/11/27 12:45:56;;;;;;;6.63;4.50;;;8.70;99.90;;;;;;5035441;28;20025;-74
2022/11/27 12:48:35;;;;;;;6.65;4.25;;;8.70;99.90;;;;;;5034984;28;20029;-76
2022/11/27 12:51:23;;;;;;;6.57;4.63;;;8.70;99.90;;;;;;5035232;28;20422;-76
2022/11/27 12:54:00;;;;;;;7.88;4.90;;;8.70;99.90;;;;;;5022736;28;20104;-74
2022/11/27 12:56:41;;;;;;;7.57;4.35;;;8.60;99.90;;;;;;5034571;28;20033;-77
2022/11/27 12:59:27;;;;;;;9.38;4.50;;;8.60;99.90;;;;;;5035033;28;20028;-76
2022/11/27 13:02:19;;;;;;;6.85;4.95;;;8.60;99.90;;;;;;5033626;28;20064;-77
2022/11/27 13:04:56;;;;;;;9.27;4.70;;;8.60;99.90;;;;;;5034823;28;20025;-75
2022/11/27 13:07:26;;;;;;;7.93;4.38;;;8.60;99.90;;;;;;5035102;28;20033;-75
2022/11/27 13:10:05;;;;;;;7.70;4.47;;;8.60;99.90;;;;;;5033531;28;20037;-76
2022/11/27 13:12:47;;;;;;;8.05;4.75;;;8.50;99.90;;;;;;5022087;28;20044;-76
2022/11/27 13:15:47;;;;;;;6.68;4.45;;;8.50;99.90;;;;;;5034016;28;20437;-75